Centerville, MA

8:50 AM EST on December 22, 2014 (GMT -0500)
Centerville | Change Station
CLOSE
Current Station
Personal Weather Station
Location: Massachusetts, MA
Elevation: 56 ft
Nearby Weather Stations

Elev 56 ft 41.67 °N, 70.37 °W | Updated 11 seconds ago

Overcast
Overcast
41.0 °F
Feels Like 41 °F
N
0.0
Wind Variable Wind from East
Gusts 4.0 mph

Today
High -- | Low -- °F
--% Chance of Precip.
Yesterday
High -- | Low -- °F
Precip. -- in
7:05 AM 4:14 PM
New Moon, 0% visible
Pressure 30.35 in
Visibility 10.0 miles
Clouds Few 1700 ft
Mostly Cloudy 2600 ft
Overcast 3800 ft
Windchill 41 °F
Dew Point 40 °F
Humidity 96%
Rainfall 0.00 in
Snow Depth Not available.
UV 0 out of 12
Pollen .10 out of 12
Air Quality Not available.
Flu Activity Not available.
METAR KHYA 221256Z 04003KT 10SM FEW017 BKN026 OVC038 03/03 A3034 RMK AO2 RAE07 SLP276 P0000 T00330028

More Conditions Fewer Conditions

Pressure 30.35 in
Visibility 10.0 miles
Clouds Few 1700 ft
Mostly Cloudy 2600 ft
Overcast 3800 ft
Windchill 41 °F
Dew Point 40 °F
Humidity 96%
Rainfall 0.00 in
Snow Depth Not available.
UV 0 out of 12
Pollen .10 out of 12
Air Quality Not available.
Flu Activity Not available.
METAR KHYA 221256Z 04003KT 10SM FEW017 BKN026 OVC038 03/03 A3034 RMK AO2 RAE07 SLP276 P0000 T00330028

More Conditions Fewer Conditions

10-Day Weather Forecast

Almanac

Astronomy

Dec. 22, 2014 Rise Set
Actual Time
Civil Twilight
Nautical Twilight
Astronomical Twilight
Moon
Length of Visible Light
Length of Day
Tomorrow will be .
, % of the Moon is Illuminated

Today's Extremes

State Highs State Lows

Community

WunderPhotos

Upload Photos

1,779,599 photos uploaded!

WunderBlogs® & News

Nearby

Air Quality

  Air Quality AQ Index Pollutant
Not available.

Snow Depth

Station Depth Elevation

Earthquake Activity

City Distance Mag. Time & Date
Minimum magnitude displayed is 2.5.

Coastal Water Temperatures

Place Temperature

Nearby Weather Stations